createdAt,value
2018-12-16T00:01:04.679Z,14.60
2018-12-16T00:03:31.709Z,14.83
2018-12-16T00:05:58.519Z,13.83
2018-12-16T00:08:24.740Z,14.67
2018-12-16T00:10:51.281Z,15.07
2018-12-16T00:13:17.578Z,15.60
2018-12-16T00:15:43.854Z,14.70
2018-12-16T00:18:10.171Z,14.43
2018-12-16T00:20:36.449Z,15.20
2018-12-16T00:23:02.749Z,15.93
2018-12-16T00:25:29.035Z,15.17
2018-12-16T00:27:56.066Z,14.97
2018-12-16T00:30:22.376Z,15.60
2018-12-16T00:32:49.352Z,14.80
2018-12-16T00:35:15.602Z,15.20
2018-12-16T00:37:41.810Z,15.53
2018-12-16T00:46:07.656Z,15.20
2018-12-16T00:48:33.882Z,14.07
2018-12-16T00:51:00.107Z,14.63
2018-12-16T00:53:26.357Z,15.43
2018-12-16T00:55:52.610Z,15.03
2018-12-16T00:58:18.835Z,13.27
2018-12-16T01:00:45.116Z,14.90
2018-12-16T01:03:11.359Z,15.17
2018-12-16T01:05:37.609Z,14.87
2018-12-16T01:08:03.861Z,15.13
2018-12-16T01:10:30.411Z,15.33
2018-12-16T01:12:57.361Z,14.67
2018-12-16T01:15:24.312Z,15.03
2018-12-16T01:17:51.438Z,15.53
2018-12-16T01:20:17.684Z,14.33
2018-12-16T01:22:43.911Z,14.20
2018-12-16T01:25:10.939Z,14.60
2018-12-16T01:27:37.184Z,14.10
2018-12-16T01:30:03.437Z,14.63
2018-12-16T01:32:29.687Z,15.57
2018-12-16T01:34:55.886Z,14.57
2018-12-16T01:37:22.144Z,15.20
2018-12-16T01:39:48.382Z,14.57
2018-12-16T01:42:14.605Z,15.47
2018-12-16T01:44:40.853Z,15.33
2018-12-16T01:47:07.860Z,14.30
2018-12-16T01:49:34.075Z,14.87
2018-12-16T01:52:00.335Z,15.30
2018-12-16T01:54:26.559Z,15.53
2018-12-16T01:56:52.938Z,15.33
2018-12-16T01:59:19.186Z,14.60
2018-12-16T02:01:51.496Z,16.07
2018-12-16T02:04:17.973Z,14.97
2018-12-16T02:06:44.219Z,14.07
2018-12-16T02:09:10.490Z,15.70
2018-12-16T02:11:36.732Z,14.50
2018-12-16T02:14:03.200Z,15.17
2018-12-16T02:16:29.405Z,15.47
2018-12-16T02:18:56.352Z,14.93
2018-12-16T02:21:23.314Z,15.93
2018-12-16T02:23:49.560Z,15.93
2018-12-16T02:26:16.018Z,16.07
2018-12-16T02:28:42.348Z,14.80
2018-12-16T02:31:10.066Z,15.13
2018-12-16T02:33:36.294Z,15.33
2018-12-16T02:36:02.595Z,14.67
2018-12-16T02:38:29.581Z,14.83
2018-12-16T02:40:55.789Z,15.30
2018-12-16T02:43:22.028Z,15.07
2018-12-16T02:45:48.359Z,14.53
2018-12-16T02:48:15.533Z,15.00
2018-12-16T02:50:41.745Z,15.33
2018-12-16T02:53:08.897Z,15.37
2018-12-16T02:55:35.144Z,15.57
2018-12-16T02:58:01.359Z,14.63
2018-12-16T03:00:27.560Z,14.57
2018-12-16T03:02:53.781Z,14.53
2018-12-16T03:05:20.048Z,15.17
2018-12-16T03:07:46.275Z,14.43
2018-12-16T03:10:12.510Z,14.53
2018-12-16T03:12:45.928Z,15.13
2018-12-16T03:15:12.168Z,15.07
2018-12-16T03:20:05.300Z,15.53
2018-12-16T03:22:31.592Z,15.63
2018-12-16T03:24:57.840Z,14.93
2018-12-16T03:27:24.058Z,14.60
2018-12-16T03:29:50.279Z,14.57
2018-12-16T03:32:16.505Z,14.00
2018-12-16T03:34:42.755Z,14.27
2018-12-16T03:37:09.009Z,15.43
2018-12-16T03:39:35.248Z,15.30
2018-12-16T03:42:02.729Z,15.93
2018-12-16T03:44:29.045Z,16.07
2018-12-16T03:46:55.273Z,16.33
2018-12-16T03:49:22.224Z,14.90
2018-12-16T03:51:49.200Z,16.30
2018-12-16T03:54:15.528Z,15.77
2018-12-16T03:56:41.735Z,15.97
2018-12-16T03:59:12.741Z,15.13
2018-12-16T04:01:38.970Z,15.70
2018-12-16T04:04:05.945Z,16.80
2018-12-16T04:06:32.179Z,16.40
2018-12-16T04:08:58.407Z,17.00
2018-12-16T04:11:24.652Z,16.90
2018-12-16T04:13:50.860Z,17.93
2018-12-16T04:16:17.075Z,17.40
2018-12-16T04:18:44.817Z,17.73
2018-12-16T04:21:11.766Z,17.07
2018-12-16T04:23:38.709Z,16.53
2018-12-16T04:26:04.928Z,17.03
2018-12-16T04:28:31.920Z,16.43
2018-12-16T04:30:58.128Z,16.77
2018-12-16T04:33:24.340Z,18.00
2018-12-16T04:35:51.300Z,18.10
2018-12-16T04:38:17.805Z,16.53
2018-12-16T04:40:44.019Z,17.63
2018-12-16T04:43:10.256Z,18.27
2018-12-16T04:45:36.599Z,18.50
2018-12-16T04:48:03.561Z,18.20
2018-12-16T04:50:30.044Z,17.90
2018-12-16T04:52:56.276Z,17.80
2018-12-16T04:55:23.961Z,17.70
2018-12-16T04:57:50.937Z,17.47
2018-12-16T05:00:17.166Z,18.47
2018-12-16T05:02:43.372Z,18.10
2018-12-16T05:05:10.336Z,17.33
2018-12-16T05:07:36.564Z,17.93
2018-12-16T05:10:15.288Z,17.53
2018-12-16T05:12:41.565Z,17.57
2018-12-16T05:15:07.809Z,17.77
2018-12-16T05:17:34.777Z,18.23
2018-12-16T05:20:01.030Z,18.13
2018-12-16T05:22:27.270Z,17.40
2018-12-16T05:24:54.288Z,18.67
2018-12-16T05:27:20.512Z,18.60
2018-12-16T05:29:46.728Z,18.33
2018-12-16T05:32:12.944Z,17.90
2018-12-16T05:34:39.923Z,17.67
2018-12-16T05:37:06.160Z,18.37
2018-12-16T05:39:32.371Z,16.83
2018-12-16T05:41:58.588Z,18.73
2018-12-16T05:44:24.816Z,18.00
2018-12-16T05:46:51.044Z,18.90
2018-12-16T05:49:17.261Z,17.07
2018-12-16T05:51:43.496Z,18.13
2018-12-16T05:54:09.720Z,17.77
2018-12-16T05:56:35.940Z,18.03
2018-12-16T05:59:02.171Z,18.43
2018-12-16T06:01:28.423Z,18.00
2018-12-16T06:03:54.635Z,18.20
2018-12-16T06:06:20.867Z,18.17
2018-12-16T06:08:47.101Z,16.87
2018-12-16T06:11:13.328Z,17.60
2018-12-16T06:13:39.546Z,18.87
2018-12-16T06:16:06.152Z,18.17
2018-12-16T06:18:33.109Z,18.23
2018-12-16T06:21:00.052Z,18.70
2018-12-16T06:23:27.287Z,17.40
2018-12-16T06:25:53.506Z,18.53
2018-12-16T06:28:19.717Z,18.47
2018-12-16T06:30:45.986Z,17.23
2018-12-16T06:33:12.980Z,18.20
2018-12-16T06:35:39.207Z,17.10
2018-12-16T06:38:06.455Z,17.77
2018-12-16T06:40:32.693Z,17.93
2018-12-16T06:42:59.269Z,17.40
2018-12-16T06:45:26.271Z,18.27
2018-12-16T06:47:52.480Z,18.87
2018-12-16T06:50:18.744Z,17.63
2018-12-16T06:52:44.968Z,18.40
2018-12-16T06:55:11.203Z,17.80
2018-12-16T06:57:37.431Z,18.03
2018-12-16T07:00:03.687Z,18.53
2018-12-16T07:02:29.932Z,18.50
2018-12-16T07:04:56.208Z,18.03
2018-12-16T07:07:22.416Z,17.43
2018-12-16T07:09:48.636Z,18.77
2018-12-16T07:12:14.902Z,18.53
2018-12-16T07:14:42.615Z,18.10
2018-12-16T07:17:09.755Z,18.67
2018-12-16T07:19:35.976Z,19.50
2018-12-16T07:22:02.224Z,17.40
2018-12-16T07:24:28.503Z,18.17
2018-12-16T07:26:54.762Z,18.97
2018-12-16T07:29:20.983Z,19.40
2018-12-16T07:31:47.205Z,19.03
2018-12-16T07:34:13.446Z,19.43
2018-12-16T07:36:39.711Z,19.60
2018-12-16T07:39:06.002Z,18.83
2018-12-16T07:41:32.227Z,20.63
2018-12-16T07:43:58.493Z,20.87
2018-12-16T07:46:24.884Z,21.80
2018-12-16T07:48:51.112Z,20.97
2018-12-16T07:51:17.332Z,20.90
2018-12-16T07:53:43.575Z,21.73
2018-12-16T07:56:10.626Z,21.63
2018-12-16T07:58:36.897Z,20.63
2018-12-16T08:01:03.923Z,21.30
2018-12-16T08:03:30.150Z,20.53
2018-12-16T08:05:56.391Z,19.47
2018-12-16T08:08:22.615Z,21.97
2018-12-16T08:10:48.835Z,20.27
2018-12-16T08:13:15.092Z,22.17
2018-12-16T08:15:42.061Z,21.80
2018-12-16T08:18:08.301Z,21.13
2018-12-16T08:20:34.507Z,21.87
2018-12-16T08:23:01.480Z,20.73
2018-12-16T08:25:27.769Z,22.77
2018-12-16T08:27:54.743Z,21.60
2018-12-16T08:30:21.002Z,20.90
2018-12-16T08:32:47.237Z,20.93
2018-12-16T08:35:13.490Z,20.83
2018-12-16T08:37:39.719Z,21.70
2018-12-16T08:40:06.037Z,20.37
2018-12-16T08:42:32.256Z,20.70
2018-12-16T08:44:58.604Z,21.27
2018-12-16T08:47:32.800Z,20.17
2018-12-16T08:49:51.861Z,19.67
2018-12-16T08:52:18.131Z,18.63
2018-12-16T08:54:44.421Z,20.00
2018-12-16T08:57:10.675Z,19.00
2018-12-16T08:59:37.682Z,18.77
2018-12-16T09:02:03.940Z,17.97
2018-12-16T09:04:31.140Z,17.87
2018-12-16T09:06:57.393Z,17.13
2018-12-16T09:09:23.745Z,16.40
2018-12-16T09:11:50.057Z,16.60
2018-12-16T09:14:16.297Z,17.20
2018-12-16T09:16:42.548Z,21.00
2018-12-16T09:19:08.874Z,18.50
2018-12-16T09:21:35.123Z,19.77
2018-12-16T09:24:01.373Z,20.07
2018-12-16T09:26:27.672Z,18.83
2018-12-16T09:28:54.210Z,19.37
2018-12-16T09:31:20.460Z,17.80
2018-12-16T09:33:46.671Z,18.00
2018-12-16T09:36:12.954Z,17.37
2018-12-16T09:38:39.941Z,17.60
2018-12-16T09:41:06.184Z,18.70
2018-12-16T09:43:32.423Z,17.83
2018-12-16T09:45:58.669Z,18.57
2018-12-16T09:48:24.948Z,18.57
2018-12-16T09:50:51.222Z,18.87
2018-12-16T09:53:17.435Z,18.70
2018-12-16T09:55:43.817Z,18.97
2018-12-16T09:58:10.369Z,19.20
2018-12-16T10:00:36.631Z,19.27
2018-12-16T10:03:02.877Z,19.27
2018-12-16T10:05:29.219Z,20.53
2018-12-16T10:07:55.444Z,20.73
2018-12-16T10:10:21.716Z,20.03
2018-12-16T10:12:48.974Z,20.13
2018-12-16T10:15:15.220Z,19.93
2018-12-16T10:17:41.451Z,20.67
2018-12-16T10:20:07.965Z,20.83
2018-12-16T10:22:34.355Z,21.40
2018-12-16T10:25:01.370Z,20.17
2018-12-16T10:27:27.953Z,21.57
2018-12-16T10:29:54.224Z,21.00
2018-12-16T10:32:20.455Z,21.43
2018-12-16T10:34:46.684Z,20.97
2018-12-16T10:37:12.896Z,21.93
2018-12-16T10:39:39.204Z,21.20
2018-12-16T10:42:05.456Z,21.57
2018-12-16T10:44:31.689Z,21.63
2018-12-16T10:46:57.941Z,22.43
2018-12-16T10:49:24.267Z,23.43
2018-12-16T10:51:50.479Z,23.20
2018-12-16T10:54:16.732Z,21.37
2018-12-16T10:56:43.839Z,21.97
2018-12-16T10:59:10.057Z,23.00
2018-12-16T11:01:36.316Z,22.93
2018-12-16T11:04:02.572Z,23.97
2018-12-16T11:06:28.847Z,23.33
2018-12-16T11:08:55.099Z,23.93
2018-12-16T11:11:21.366Z,24.40
2018-12-16T11:13:47.623Z,24.30
2018-12-16T11:16:14.649Z,23.53
2018-12-16T11:18:40.900Z,27.27
2018-12-16T11:21:07.127Z,25.97
2018-12-16T11:23:33.507Z,26.90
2018-12-16T11:25:59.875Z,26.23
2018-12-16T11:28:26.136Z,27.17
2018-12-16T11:30:52.428Z,27.17
2018-12-16T11:33:18.868Z,27.37
2018-12-16T11:35:45.175Z,27.80
2018-12-16T11:38:11.480Z,29.67
2018-12-16T11:40:37.712Z,27.47
2018-12-16T11:43:04.244Z,28.97
2018-12-16T11:45:30.569Z,26.83
2018-12-16T11:47:56.891Z,29.43
2018-12-16T11:50:23.230Z,28.60
2018-12-16T11:52:49.792Z,28.07
2018-12-16T11:55:16.748Z,29.00
2018-12-16T11:57:43.095Z,28.47
2018-12-16T12:00:09.435Z,28.03
2018-12-16T12:02:35.672Z,29.33
2018-12-16T12:05:01.918Z,29.67
2018-12-16T12:07:28.186Z,29.10
2018-12-16T12:09:55.156Z,30.47
2018-12-16T12:12:21.428Z,30.67
2018-12-16T12:14:47.701Z,30.53
2018-12-16T12:17:14.003Z,30.33
2018-12-16T12:19:41.207Z,31.20
2018-12-16T12:22:08.252Z,30.77
2018-12-16T12:24:34.583Z,28.03
2018-12-16T12:27:00.840Z,29.37
2018-12-16T12:29:27.879Z,30.30
2018-12-16T12:31:55.147Z,30.67
2018-12-16T12:34:21.397Z,29.57
2018-12-16T12:36:47.641Z,29.03
2018-12-16T12:39:13.991Z,30.23
2018-12-16T12:41:40.291Z,30.53
2018-12-16T12:44:06.504Z,30.70
2018-12-16T12:46:32.845Z,30.07
2018-12-16T12:51:27.688Z,28.33
2018-12-16T12:53:54.740Z,32.70
2018-12-16T12:56:21.009Z,30.03
2018-12-16T12:58:48.002Z,29.47
2018-12-16T13:01:14.313Z,29.17
2018-12-16T13:03:40.532Z,30.50
2018-12-16T13:06:06.796Z,49.00
2018-12-16T13:08:33.039Z,32.07
2018-12-16T13:11:00.029Z,32.10
2018-12-16T13:13:26.313Z,29.67
2018-12-16T13:15:52.588Z,31.77
2018-12-16T13:18:18.875Z,30.63
2018-12-16T13:20:46.096Z,31.40
2018-12-16T13:23:12.316Z,30.20
2018-12-16T13:25:50.840Z,30.77
2018-12-16T13:28:17.084Z,28.80
2018-12-16T13:30:44.201Z,29.93
2018-12-16T13:33:10.587Z,29.63
2018-12-16T13:35:37.591Z,31.30
2018-12-16T13:38:03.904Z,31.13
2018-12-16T13:40:30.425Z,31.33
2018-12-16T13:42:56.710Z,30.73
2018-12-16T13:45:23.009Z,38.63
2018-12-16T13:47:49.417Z,31.23
2018-12-16T13:50:15.717Z,32.63
2018-12-16T13:52:41.909Z,38.63
2018-12-16T13:55:08.175Z,30.97
2018-12-16T13:57:35.211Z,31.57
2018-12-16T14:00:02.035Z,32.30
2018-12-16T14:02:28.328Z,30.73
2018-12-16T14:04:54.594Z,30.47
2018-12-16T14:07:21.075Z,31.73
2018-12-16T14:09:48.059Z,32.33
2018-12-16T14:12:14.288Z,29.20
2018-12-16T14:14:40.788Z,31.83
2018-12-16T14:17:06.997Z,31.77
2018-12-16T14:19:34.763Z,32.00
2018-12-16T14:22:01.102Z,28.87
2018-12-16T14:24:27.387Z,31.43
2018-12-16T14:26:53.778Z,31.47
2018-12-16T14:29:20.829Z,30.87
2018-12-16T14:31:47.151Z,31.17
2018-12-16T14:34:13.400Z,31.60
2018-12-16T14:36:39.667Z,30.87
2018-12-16T14:39:06.822Z,29.93
2018-12-16T14:41:33.204Z,30.17
2018-12-16T14:43:59.484Z,31.10
2018-12-16T14:46:26.544Z,29.70
2018-12-16T14:48:53.527Z,28.97
2018-12-16T14:51:19.842Z,29.13
2018-12-16T14:53:46.094Z,28.57
2018-12-16T14:56:12.320Z,26.83
2018-12-16T14:58:38.583Z,28.07
2018-12-16T15:01:05.636Z,29.50
2018-12-16T15:03:31.886Z,29.43
2018-12-16T15:05:58.151Z,27.17
2018-12-16T15:08:24.547Z,27.73
2018-12-16T15:10:50.768Z,27.87
2018-12-16T15:13:17.007Z,29.30
2018-12-16T15:15:43.301Z,28.97
2018-12-16T15:18:10.374Z,28.13
2018-12-16T15:20:36.619Z,28.27
2018-12-16T15:23:02.956Z,39.90
2018-12-16T15:25:32.935Z,27.83
2018-12-16T15:27:59.384Z,33.17
2018-12-16T15:30:25.959Z,26.73
2018-12-16T15:32:52.228Z,25.83
2018-12-16T15:35:19.262Z,25.13
2018-12-16T15:37:45.497Z,24.67
2018-12-16T15:40:11.737Z,24.40
2018-12-16T15:42:38.030Z,24.73
2018-12-16T15:45:05.344Z,22.70
2018-12-16T15:47:31.786Z,23.03
2018-12-16T15:49:58.064Z,23.80
2018-12-16T15:52:25.055Z,23.37
2018-12-16T15:54:51.322Z,23.33
2018-12-16T15:57:17.553Z,23.07
2018-12-16T15:59:43.852Z,22.37
2018-12-16T16:02:10.167Z,23.20
2018-12-16T16:04:36.434Z,22.77
2018-12-16T16:07:02.720Z,22.30
2018-12-16T16:09:29.036Z,23.10
2018-12-16T16:11:55.289Z,22.23
2018-12-16T16:14:21.529Z,20.93
2018-12-16T16:16:47.785Z,21.47
2018-12-16T16:19:14.120Z,19.57
2018-12-16T16:21:41.084Z,20.50
2018-12-16T16:24:07.333Z,19.97
2018-12-16T16:26:33.728Z,22.60
2018-12-16T16:29:00.712Z,22.20
2018-12-16T16:31:26.961Z,19.77
2018-12-16T16:33:53.274Z,19.67
2018-12-16T16:36:19.587Z,19.77
2018-12-16T16:38:45.939Z,20.23
2018-12-16T16:41:12.374Z,19.50
2018-12-16T16:43:38.686Z,19.87
2018-12-16T16:46:04.969Z,20.57
2018-12-16T16:48:31.999Z,18.97
2018-12-16T16:50:58.259Z,19.37
2018-12-16T16:53:24.700Z,18.60
2018-12-16T16:55:51.035Z,19.13
2018-12-16T16:58:17.245Z,18.30
2018-12-16T17:00:43.503Z,18.10
2018-12-16T17:03:09.903Z,17.17
2018-12-16T17:05:36.865Z,19.07
2018-12-16T17:08:03.143Z,18.57
2018-12-16T17:10:29.434Z,17.87
2018-12-16T17:12:55.659Z,17.60
2018-12-16T17:15:21.932Z,17.20
2018-12-16T17:17:48.191Z,16.93
2018-12-16T17:20:15.176Z,17.93
2018-12-16T17:22:41.422Z,18.33
2018-12-16T17:25:07.719Z,19.60
2018-12-16T17:27:34.031Z,19.00
2018-12-16T17:30:02.127Z,16.63
2018-12-16T17:32:26.611Z,17.27
2018-12-16T17:34:52.915Z,18.53
2018-12-16T17:37:19.995Z,19.23
2018-12-16T17:39:46.237Z,17.70
2018-12-16T17:42:12.564Z,18.27
2018-12-16T17:44:38.876Z,18.93
2018-12-16T17:47:05.123Z,18.30
2018-12-16T17:49:31.369Z,18.70
2018-12-16T17:51:57.591Z,18.07
2018-12-16T17:54:23.856Z,19.03
2018-12-16T17:56:50.087Z,20.50
2018-12-16T17:59:18.071Z,22.57
2018-12-16T18:01:42.650Z,20.83
2018-12-16T18:04:08.956Z,20.73
2018-12-16T18:06:36.686Z,20.40
2018-12-16T18:09:03.807Z,20.77
2018-12-16T18:11:30.065Z,20.30
2018-12-16T18:13:56.342Z,21.53
2018-12-16T18:16:23.373Z,26.40
2018-12-16T18:18:50.348Z,24.17
2018-12-16T18:21:16.607Z,24.10
2018-12-16T18:23:42.986Z,25.53
2018-12-16T18:26:09.969Z,25.20
2018-12-16T18:28:36.184Z,28.57
2018-12-16T18:31:02.494Z,31.57
2018-12-16T18:33:28.862Z,28.40
2018-12-16T18:35:55.074Z,28.83
2018-12-16T18:38:21.333Z,27.33
2018-12-16T18:40:47.635Z,27.77
2018-12-16T18:43:13.917Z,29.77
2018-12-16T18:45:41.032Z,29.17
2018-12-16T18:48:08.192Z,27.50
2018-12-16T18:50:34.724Z,28.70
2018-12-16T18:53:00.980Z,29.23
2018-12-16T18:55:27.222Z,28.27
2018-12-16T18:57:54.351Z,30.73
2018-12-16T19:00:21.358Z,33.63
2018-12-16T19:02:47.925Z,29.87
2018-12-16T19:05:14.245Z,30.23
2018-12-16T19:07:40.511Z,32.43
2018-12-16T19:10:06.801Z,31.03
2018-12-16T19:12:33.049Z,30.23
2018-12-16T19:15:00.078Z,30.37
2018-12-16T19:17:26.305Z,29.60
2018-12-16T19:19:52.588Z,29.27
2018-12-16T19:22:20.145Z,28.73
2018-12-16T19:24:46.417Z,25.27
2018-12-16T19:27:12.662Z,24.80
2018-12-16T19:29:38.995Z,25.73
2018-12-16T19:32:05.985Z,26.47
2018-12-16T19:34:32.257Z,23.80
2018-12-16T19:36:59.281Z,24.80
2018-12-16T19:39:25.537Z,25.90
2018-12-16T19:41:52.043Z,23.93
2018-12-16T19:44:18.414Z,24.60
2018-12-16T19:46:44.753Z,25.43
2018-12-16T19:49:11.000Z,25.63
2018-12-16T19:51:37.248Z,26.73
2018-12-16T19:54:03.639Z,26.13
2018-12-16T19:56:29.986Z,24.43
2018-12-16T19:58:56.440Z,25.33
2018-12-16T20:01:22.797Z,26.17
2018-12-16T20:03:55.595Z,24.50
2018-12-16T20:06:28.174Z,24.00
2018-12-16T20:08:55.165Z,23.03
2018-12-16T20:11:21.421Z,23.70
2018-12-16T20:13:48.319Z,22.37
2018-12-16T20:16:14.553Z,23.97
2018-12-16T20:18:41.426Z,24.20
2018-12-16T20:21:07.757Z,24.17
2018-12-16T20:23:34.032Z,23.93
2018-12-16T20:26:01.191Z,22.03
2018-12-16T20:28:27.788Z,23.30
2018-12-16T20:30:54.187Z,23.67
2018-12-16T20:33:20.494Z,22.47
2018-12-16T20:35:46.815Z,23.13
2018-12-16T20:38:13.099Z,23.47
2018-12-16T20:40:40.177Z,24.10
2018-12-16T20:43:06.565Z,24.60
2018-12-16T20:45:33.064Z,23.87
2018-12-16T20:48:00.159Z,22.33
2018-12-16T20:50:27.153Z,22.77
2018-12-16T20:52:53.469Z,21.40
2018-12-16T20:55:19.707Z,22.23
2018-12-16T20:57:45.951Z,22.67
2018-12-16T21:00:12.941Z,23.20
2018-12-16T21:02:40.337Z,21.60
2018-12-16T21:05:06.627Z,22.27
2018-12-16T21:07:33.464Z,22.13
2018-12-16T21:09:59.787Z,28.63
2018-12-16T21:12:32.134Z,26.63
2018-12-16T21:15:04.343Z,27.87
2018-12-16T21:17:37.434Z,23.00
2018-12-16T21:20:04.509Z,21.17
2018-12-16T21:22:31.025Z,19.73
2018-12-16T21:24:57.358Z,23.20
2018-12-16T21:27:26.151Z,21.20
2018-12-16T21:29:49.893Z,21.53
2018-12-16T21:32:16.121Z,22.70
2018-12-16T21:34:42.354Z,22.13
2018-12-16T21:37:08.824Z,22.57
2018-12-16T21:39:35.102Z,25.47
2018-12-16T21:42:01.341Z,25.40
2018-12-16T21:44:28.336Z,21.43
2018-12-16T21:46:54.604Z,21.20
2018-12-16T21:49:20.824Z,21.27
2018-12-16T21:51:47.049Z,23.43
2018-12-16T21:54:13.276Z,21.40
2018-12-16T21:56:39.514Z,21.53
2018-12-16T21:59:06.514Z,22.00
2018-12-16T22:01:32.798Z,20.73
2018-12-16T22:03:59.777Z,20.20
2018-12-16T22:06:26.101Z,20.67
2018-12-16T22:08:52.339Z,20.10
2018-12-16T22:11:18.602Z,19.07
2018-12-16T22:13:44.833Z,21.53
2018-12-16T22:16:11.061Z,23.83
2018-12-16T22:18:37.280Z,22.63
2018-12-16T22:21:03.504Z,21.73
2018-12-16T22:23:29.770Z,22.00
2018-12-16T22:25:57.579Z,19.20
2018-12-16T22:28:23.889Z,23.67
2018-12-16T22:30:50.147Z,22.23
2018-12-16T22:33:16.416Z,24.07
2018-12-16T22:35:43.408Z,21.90
2018-12-16T22:38:09.680Z,22.00
2018-12-16T22:40:35.971Z,22.83
2018-12-16T22:43:02.203Z,23.03
2018-12-16T22:45:29.256Z,23.50
2018-12-16T22:47:55.492Z,24.57
2018-12-16T22:50:22.484Z,23.37
2018-12-16T22:52:48.734Z,24.00
2018-12-16T22:55:15.016Z,24.10
2018-12-16T22:57:47.092Z,24.80
2018-12-16T23:00:08.303Z,23.20
2018-12-16T23:02:35.600Z,22.40
2018-12-16T23:05:02.276Z,21.50
2018-12-16T23:07:28.501Z,21.17
2018-12-16T23:09:54.739Z,20.67
2018-12-16T23:12:21.711Z,20.13
2018-12-16T23:14:47.925Z,20.47
2018-12-16T23:17:14.163Z,21.07
2018-12-16T23:19:40.480Z,21.10
2018-12-16T23:22:06.764Z,20.37
2018-12-16T23:24:33.818Z,20.70
2018-12-16T23:27:00.023Z,19.53
2018-12-16T23:29:26.345Z,19.90
2018-12-16T23:31:52.517Z,19.63
2018-12-16T23:34:19.072Z,18.70
2018-12-16T23:36:46.041Z,19.33
2018-12-16T23:39:12.288Z,19.40
2018-12-16T23:41:38.492Z,18.97
2018-12-16T23:44:04.703Z,20.00
2018-12-16T23:46:30.995Z,19.00
2018-12-16T23:48:57.921Z,18.00
2018-12-16T23:51:24.136Z,17.67
2018-12-16T23:53:50.359Z,18.53
2018-12-16T23:56:16.572Z,18.10
2018-12-16T23:58:42.791Z,19.40
